createdAt,value
2018-01-25T00:00:49.911Z,4.8
2018-01-25T00:01:53.244Z,4.8
2018-01-25T00:02:58.993Z,4.9
2018-01-25T00:04:03.513Z,4.8
2018-01-25T00:05:07.730Z,4.8
2018-01-25T00:06:11.095Z,4.8
2018-01-25T00:07:53.683Z,4.8
2018-01-25T00:08:57.757Z,4.8
2018-01-25T00:10:01.758Z,4.8
2018-01-25T00:11:06.982Z,4.8
2018-01-25T00:12:11.557Z,4.9
2018-01-25T00:13:16.410Z,5
2018-01-25T00:14:20.509Z,5
2018-01-25T00:15:24.430Z,5.1
2018-01-25T00:16:27.704Z,5.1
2018-01-25T00:17:31.607Z,5.1
2018-01-25T00:18:40.558Z,5.1
2018-01-25T00:19:44.520Z,5.2
2018-01-25T00:20:49.679Z,5.3
2018-01-25T00:21:54.694Z,5.4
2018-01-25T00:22:59.539Z,5.5
2018-01-25T00:24:03.662Z,5.6
2018-01-25T00:25:10.211Z,5.6
2018-01-25T00:26:16.300Z,5.6
2018-01-25T00:27:25.888Z,5.6
2018-01-25T00:28:30.929Z,5.6
2018-01-25T00:29:42.718Z,5.5
2018-01-25T00:30:50.738Z,5.6
2018-01-25T00:31:56.196Z,5.5
2018-01-25T00:33:00.813Z,5.5
2018-01-25T00:34:07.639Z,5.5
2018-01-25T00:35:12.371Z,5.5
2018-01-25T00:36:19.258Z,5.5
2018-01-25T00:37:23.251Z,5.5
2018-01-25T00:38:29.915Z,5.4
2018-01-25T00:39:33.968Z,5.4
2018-01-25T00:40:43.228Z,5.4
2018-01-25T00:41:47.088Z,5.4
2018-01-25T00:42:50.491Z,5.4
2018-01-25T00:43:53.952Z,5.4
2018-01-25T00:44:57.909Z,5.4
2018-01-25T00:46:01.217Z,5.3
2018-01-25T00:47:04.494Z,5.3
2018-01-25T00:48:07.841Z,5.2
2018-01-25T00:49:11.832Z,5.3
2018-01-25T00:50:16.462Z,5.2
2018-01-25T00:51:56.436Z,5.2
2018-01-25T00:53:01.247Z,5.2
2018-01-25T00:54:05.894Z,5.2
2018-01-25T00:55:09.227Z,5.2
2018-01-25T00:56:12.672Z,5.3
2018-01-25T00:57:16.005Z,5.2
2018-01-25T00:58:21.374Z,5.3
2018-01-25T00:59:24.871Z,5.3
2018-01-25T01:00:28.392Z,5.4
2018-01-25T01:01:31.698Z,5.4
2018-01-25T01:02:38.702Z,5.4
2018-01-25T01:03:42.045Z,5.4
2018-01-25T01:04:45.553Z,5.4
2018-01-25T01:05:49.887Z,5.4
2018-01-25T01:06:53.972Z,5.4
2018-01-25T01:07:57.903Z,5.3
2018-01-25T01:09:01.119Z,5.3
2018-01-25T01:10:05.038Z,5.3
2018-01-25T01:11:09.330Z,5.2
2018-01-25T01:12:13.028Z,5.3
2018-01-25T01:13:19.879Z,5.2
2018-01-25T01:14:24.177Z,5.2
2018-01-25T01:15:28.025Z,5.1
2018-01-25T01:16:32.733Z,5.1
2018-01-25T01:17:36.221Z,5.2
2018-01-25T01:18:40.938Z,5.2
2018-01-25T01:19:44.251Z,5.2
2018-01-25T01:20:48.223Z,5
2018-01-25T01:21:52.328Z,5.1
2018-01-25T01:22:57.656Z,5.1
2018-01-25T01:24:05.486Z,5.1
2018-01-25T01:25:10.871Z,5.1
2018-01-25T01:26:16.144Z,5.1
2018-01-25T01:27:21.668Z,5.1
2018-01-25T01:28:26.066Z,5.1
2018-01-25T01:29:30.207Z,5.1
2018-01-25T01:30:34.091Z,5.1
2018-01-25T01:31:41.205Z,5.1
2018-01-25T01:32:45.784Z,5.1
2018-01-25T01:33:50.968Z,5.1
2018-01-25T01:36:36.969Z,5
2018-01-25T01:37:40.244Z,5.1
2018-01-25T01:38:46.380Z,5.1
2018-01-25T01:39:51.815Z,5.2
2018-01-25T01:40:57.206Z,5.2
2018-01-25T01:42:01.908Z,5.2
2018-01-25T01:43:05.795Z,5.2
2018-01-25T01:44:10.181Z,5.2
2018-01-25T01:45:17.293Z,5.2
2018-01-25T01:46:22.327Z,5.2
2018-01-25T01:48:08.087Z,5.1
2018-01-25T01:49:15.800Z,5.1
2018-01-25T01:50:21.534Z,5.1
2018-01-25T01:51:27.474Z,5.1
2018-01-25T01:52:33.630Z,5.1
2018-01-25T01:53:38.826Z,5.1
2018-01-25T01:54:46.026Z,5.1
2018-01-25T01:55:50.473Z,5.1
2018-01-25T01:56:55.538Z,5.1
2018-01-25T01:58:00.560Z,5.1
2018-01-25T01:59:11.703Z,5.1
2018-01-25T02:00:19.046Z,5.1
2018-01-25T02:01:25.233Z,5.1
2018-01-25T02:02:29.923Z,5.1
2018-01-25T02:03:34.859Z,5
2018-01-25T02:04:39.326Z,5
2018-01-25T02:05:43.325Z,5
2018-01-25T02:06:48.236Z,4.9
2018-01-25T02:07:55.196Z,4.9
2018-01-25T02:09:00.030Z,4.9
2018-01-25T02:10:07.590Z,4.8
2018-01-25T02:11:12.136Z,4.8
2018-01-25T02:12:17.391Z,4.8
2018-01-25T02:13:23.804Z,4.7
2018-01-25T02:14:32.006Z,4.8
2018-01-25T02:15:37.829Z,4.8
2018-01-25T02:16:44.101Z,4.8
2018-01-25T02:17:51.535Z,4.8
2018-01-25T02:18:59.231Z,4.9
2018-01-25T02:20:05.870Z,4.9
2018-01-25T02:21:14.968Z,4.9
2018-01-25T02:22:20.639Z,4.8
2018-01-25T02:23:26.476Z,4.9
2018-01-25T02:24:33.094Z,4.9
2018-01-25T02:25:38.667Z,4.9
2018-01-25T02:26:43.267Z,4.9
2018-01-25T02:27:50.482Z,4.9
2018-01-25T02:28:58.462Z,5
2018-01-25T02:30:04.356Z,4.9
2018-01-25T02:31:10.580Z,4.9
2018-01-25T02:32:20.795Z,4.9
2018-01-25T02:33:24.723Z,4.9
2018-01-25T02:34:28.711Z,4.9
2018-01-25T02:35:33.863Z,4.9
2018-01-25T02:36:39.408Z,4.9
2018-01-25T02:37:47.317Z,4.9
2018-01-25T02:38:53.695Z,4.9
2018-01-25T02:40:00.047Z,4.9
2018-01-25T02:41:03.308Z,5
2018-01-25T02:42:06.471Z,5
2018-01-25T02:43:15.963Z,5
2018-01-25T02:44:23.653Z,5
2018-01-25T02:45:28.073Z,5
2018-01-25T02:46:37.288Z,5
2018-01-25T02:47:47.068Z,5
2018-01-25T02:48:53.245Z,5
2018-01-25T02:49:58.122Z,5.1
2018-01-25T02:51:03.212Z,5.1
2018-01-25T02:52:08.808Z,5.1
2018-01-25T02:53:16.152Z,5.1
2018-01-25T02:54:29.076Z,5
2018-01-25T02:55:37.153Z,5
2018-01-25T02:56:42.965Z,5
2018-01-25T02:57:48.330Z,5
2018-01-25T02:58:55.563Z,5
2018-01-25T03:00:02.267Z,5.1
2018-01-25T03:01:09.108Z,5
2018-01-25T03:02:16.463Z,5
2018-01-25T03:03:22.751Z,5
2018-01-25T03:04:29.777Z,5.1
2018-01-25T03:06:12.705Z,5
2018-01-25T03:07:16.724Z,5
2018-01-25T03:08:20.024Z,5
2018-01-25T03:09:25.792Z,5
2018-01-25T03:10:29.110Z,5
2018-01-25T03:11:33.374Z,5
2018-01-25T03:12:36.620Z,5
2018-01-25T03:13:40.564Z,5
2018-01-25T03:14:44.594Z,5
2018-01-25T03:15:48.636Z,5
2018-01-25T03:16:56.387Z,5
2018-01-25T03:18:01.963Z,5
2018-01-25T03:19:05.248Z,5
2018-01-25T03:20:10.068Z,5
2018-01-25T03:21:14.060Z,5
2018-01-25T03:22:17.440Z,5
2018-01-25T03:23:20.790Z,5
2018-01-25T03:24:24.676Z,5
2018-01-25T03:25:28.665Z,5
2018-01-25T03:26:31.963Z,5
2018-01-25T03:27:39.805Z,5
2018-01-25T03:28:43.618Z,5.1
2018-01-25T03:29:48.928Z,5
2018-01-25T03:30:53.989Z,5
2018-01-25T03:31:58.057Z,5
2018-01-25T03:33:01.391Z,5
2018-01-25T03:34:04.741Z,5
2018-01-25T03:35:08.112Z,5
2018-01-25T03:36:11.505Z,5
2018-01-25T03:37:14.816Z,5
2018-01-25T03:38:22.970Z,5
2018-01-25T03:39:29.541Z,5
2018-01-25T03:40:33.441Z,5
2018-01-25T03:41:37.526Z,5
2018-01-25T03:42:41.837Z,5
2018-01-25T03:43:46.193Z,5
2018-01-25T03:44:50.150Z,5
2018-01-25T03:45:55.765Z,5
2018-01-25T03:47:01.469Z,5
2018-01-25T03:48:04.913Z,5
2018-01-25T03:49:12.557Z,5
2018-01-25T03:50:17.042Z,4.9
2018-01-25T03:51:22.261Z,4.9
2018-01-25T03:52:26.278Z,4.9
2018-01-25T03:53:30.300Z,4.9
2018-01-25T03:54:35.046Z,4.9
2018-01-25T03:55:39.561Z,4.9
2018-01-25T03:56:45.350Z,4.9
2018-01-25T03:57:49.432Z,4.9
2018-01-25T03:58:53.338Z,4.9
2018-01-25T04:00:02.419Z,5
2018-01-25T04:01:07.166Z,5
2018-01-25T04:02:12.818Z,5
2018-01-25T04:03:18.526Z,4.9
2018-01-25T04:04:22.585Z,4.9
2018-01-25T04:05:27.449Z,4.9
2018-01-25T04:06:33.019Z,5
2018-01-25T04:07:37.665Z,4.9
2018-01-25T04:08:45.595Z,4.9
2018-01-25T04:09:49.616Z,4.9
2018-01-25T04:11:05.838Z,5
2018-01-25T04:12:11.329Z,4.9
2018-01-25T04:13:16.955Z,4.9
2018-01-25T04:14:22.518Z,4.9
2018-01-25T04:15:28.002Z,4.9
2018-01-25T04:16:33.033Z,4.9
2018-01-25T04:17:38.165Z,4.9
2018-01-25T04:18:43.671Z,4.9
2018-01-25T04:19:48.575Z,4.9
2018-01-25T04:20:55.264Z,4.9
2018-01-25T04:22:06.862Z,4.9
2018-01-25T04:23:11.809Z,4.9
2018-01-25T04:24:19.184Z,4.9
2018-01-25T04:25:26.008Z,4.9
2018-01-25T04:26:32.299Z,4.9
2018-01-25T04:27:38.043Z,4.9
2018-01-25T04:28:43.912Z,4.9
2018-01-25T04:29:52.020Z,4.9
2018-01-25T04:30:59.430Z,4.9
2018-01-25T04:32:04.721Z,5
2018-01-25T04:34:18.577Z,4.9
2018-01-25T04:35:26.392Z,4.9
2018-01-25T04:36:32.445Z,4.9
2018-01-25T04:37:39.486Z,4.9
2018-01-25T04:38:45.457Z,4.9
2018-01-25T04:39:50.030Z,4.9
2018-01-25T04:40:55.427Z,4.9
2018-01-25T04:42:04.387Z,4.9
2018-01-25T04:43:11.261Z,4.9
2018-01-25T04:44:16.595Z,4.9
2018-01-25T04:45:30.029Z,4.9
2018-01-25T04:46:35.453Z,4.8
2018-01-25T04:47:41.508Z,4.8
2018-01-25T04:48:48.495Z,4.8
2018-01-25T04:49:55.846Z,4.8
2018-01-25T04:51:02.316Z,4.8
2018-01-25T04:52:07.913Z,4.8
2018-01-25T04:53:12.978Z,4.8
2018-01-25T04:54:19.979Z,4.8
2018-01-25T04:55:27.155Z,4.8
2018-01-25T04:57:09.940Z,4.8
2018-01-25T04:58:15.326Z,4.8
2018-01-25T04:59:21.192Z,4.8
2018-01-25T05:00:26.442Z,4.8
2018-01-25T05:01:29.974Z,4.8
2018-01-25T05:02:34.342Z,4.8
2018-01-25T05:03:37.663Z,4.8
2018-01-25T05:04:41.050Z,4.9
2018-01-25T05:05:47.578Z,4.9
2018-01-25T05:06:52.870Z,4.8
2018-01-25T05:08:03.170Z,4.8
2018-01-25T05:09:08.218Z,4.8
2018-01-25T05:10:22.126Z,4.8
2018-01-25T05:11:27.199Z,4.8
2018-01-25T05:12:33.246Z,4.9
2018-01-25T05:13:40.257Z,4.9
2018-01-25T05:14:45.881Z,4.9
2018-01-25T05:15:51.812Z,4.9
2018-01-25T05:17:00.060Z,4.9
2018-01-25T05:18:05.338Z,4.9
2018-01-25T05:19:47.753Z,4.9
2018-01-25T05:20:53.341Z,5
2018-01-25T05:22:01.220Z,4.9
2018-01-25T05:23:09.090Z,4.9
2018-01-25T05:24:15.982Z,4.9
2018-01-25T05:25:21.474Z,4.9
2018-01-25T05:26:27.832Z,4.9
2018-01-25T05:27:35.400Z,5
2018-01-25T05:28:43.831Z,5
2018-01-25T05:29:50.373Z,5
2018-01-25T05:31:00.467Z,5
2018-01-25T05:32:06.680Z,5
2018-01-25T05:33:12.964Z,5
2018-01-25T05:34:17.269Z,5
2018-01-25T05:35:20.556Z,4.9
2018-01-25T05:36:25.067Z,4.9
2018-01-25T05:37:28.301Z,4.9
2018-01-25T05:38:31.675Z,4.9
2018-01-25T05:39:35.663Z,4.9
2018-01-25T05:40:39.058Z,4.9
2018-01-25T05:41:46.516Z,4.9
2018-01-25T05:42:50.581Z,4.9
2018-01-25T05:43:56.186Z,4.9
2018-01-25T05:44:59.683Z,5
2018-01-25T05:46:03.953Z,4.9
2018-01-25T05:47:07.327Z,5
2018-01-25T05:48:10.788Z,5
2018-01-25T05:49:14.750Z,4.9
2018-01-25T05:50:18.132Z,4.9
2018-01-25T05:51:22.790Z,4.9
2018-01-25T05:52:29.537Z,4.8
2018-01-25T05:53:33.582Z,4.8
2018-01-25T05:54:37.224Z,4.8
2018-01-25T05:55:40.584Z,4.9
2018-01-25T05:56:44.720Z,4.8
2018-01-25T05:57:49.926Z,4.8
2018-01-25T05:58:53.321Z,4.8
2018-01-25T05:59:57.635Z,4.8
2018-01-25T06:01:02.400Z,4.8
2018-01-25T06:02:07.084Z,4.7
2018-01-25T06:03:15.485Z,4.7
2018-01-25T06:04:22.567Z,4.7
2018-01-25T06:05:25.971Z,4.7
2018-01-25T06:06:30.527Z,4.6
2018-01-25T06:07:35.425Z,4.6
2018-01-25T06:08:40.309Z,4.6
2018-01-25T06:09:44.564Z,4.6
2018-01-25T06:10:48.054Z,4.6
2018-01-25T06:11:52.728Z,4.6
2018-01-25T06:13:07.913Z,4.6
2018-01-25T06:14:17.009Z,4.6
2018-01-25T06:15:21.045Z,4.6
2018-01-25T06:16:25.043Z,4.6
2018-01-25T06:17:28.417Z,4.6
2018-01-25T06:18:34.295Z,4.6
2018-01-25T06:19:41.807Z,4.6
2018-01-25T06:20:48.478Z,4.5
2018-01-25T06:21:55.607Z,4.5
2018-01-25T06:23:02.347Z,4.6
2018-01-25T06:24:06.332Z,4.5
2018-01-25T06:25:49.407Z,4.5
2018-01-25T06:26:56.218Z,4.5
2018-01-25T06:28:01.981Z,4.5
2018-01-25T06:29:09.456Z,4.5
2018-01-25T06:30:13.940Z,4.4
2018-01-25T06:31:20.473Z,4.5
2018-01-25T06:32:33.605Z,4.5
2018-01-25T06:33:38.707Z,4.5
2018-01-25T06:34:50.760Z,4.5
2018-01-25T06:35:56.842Z,4.5
2018-01-25T06:38:50.582Z,4.5
2018-01-25T06:40:00.329Z,4.5
2018-01-25T06:41:09.002Z,4.5
2018-01-25T06:42:16.672Z,4.5
2018-01-25T06:43:22.844Z,4.5
2018-01-25T06:44:29.175Z,4.5
2018-01-25T06:45:37.727Z,4.5
2018-01-25T06:46:46.189Z,4.5
2018-01-25T06:47:53.654Z,4.5
2018-01-25T06:49:00.597Z,4.5
2018-01-25T06:50:13.194Z,4.5
2018-01-25T06:51:21.113Z,4.4
2018-01-25T06:52:25.962Z,4.4
2018-01-25T06:53:36.640Z,4.4
2018-01-25T06:54:43.384Z,4.3
2018-01-25T06:55:47.983Z,4.4
2018-01-25T06:57:05.371Z,4.3
2018-01-25T06:58:14.858Z,4.3
2018-01-25T06:59:22.977Z,4.3
2018-01-25T07:00:34.101Z,4.3
2018-01-25T07:01:48.148Z,4.3
2018-01-25T07:02:56.884Z,4.3
2018-01-25T07:04:03.506Z,4.3
2018-01-25T07:05:11.685Z,4.3
2018-01-25T07:06:17.919Z,4.3
2018-01-25T07:07:27.119Z,4.3
2018-01-25T07:08:36.581Z,4.3
2018-01-25T07:09:44.981Z,4.3
2018-01-25T07:10:53.528Z,4.3
2018-01-25T07:11:59.254Z,4.3
2018-01-25T07:13:45.591Z,4.3
2018-01-25T07:14:51.568Z,4.3
2018-01-25T07:16:04.614Z,4.2
2018-01-25T07:17:11.927Z,4.2
2018-01-25T07:18:19.004Z,4.2
2018-01-25T07:19:27.216Z,4.1
2018-01-25T07:20:47.516Z,4.2
2018-01-25T07:21:56.977Z,4.2
2018-01-25T07:23:04.939Z,4.2
2018-01-25T07:24:10.254Z,4.2
2018-01-25T07:25:23.431Z,4.2
2018-01-25T07:26:30.860Z,4.2
2018-01-25T07:27:37.681Z,4.3
2018-01-25T07:28:47.730Z,4.3
2018-01-25T07:29:54.219Z,4.2
2018-01-25T07:31:03.048Z,4.3
2018-01-25T07:32:08.422Z,4.3
2018-01-25T07:33:15.327Z,4.3
2018-01-25T07:34:21.261Z,4.3
2018-01-25T07:35:25.021Z,4.3
2018-01-25T07:36:35.938Z,4.3
2018-01-25T07:37:42.570Z,4.3
2018-01-25T07:38:49.711Z,4.4
2018-01-25T07:39:58.349Z,4.4
2018-01-25T07:41:04.754Z,4.4
2018-01-25T07:42:13.108Z,4.5
2018-01-25T07:43:16.380Z,4.6
2018-01-25T07:44:22.009Z,4.5
2018-01-25T07:45:28.294Z,4.6
2018-01-25T07:46:32.599Z,4.7
2018-01-25T07:47:43.215Z,4.7
2018-01-25T07:48:51.753Z,4.8
2018-01-25T07:49:58.682Z,4.8
2018-01-25T07:51:07.713Z,4.9
2018-01-25T07:52:13.795Z,5
2018-01-25T07:53:19.762Z,5
2018-01-25T07:54:27.120Z,5.1
2018-01-25T07:55:34.318Z,5.1
2018-01-25T07:56:41.348Z,5.1
2018-01-25T07:57:50.337Z,5.1
2018-01-25T07:59:36.368Z,5.2
2018-01-25T08:00:42.713Z,5.3
2018-01-25T08:01:47.928Z,5.4
2018-01-25T08:02:51.960Z,5.4
2018-01-25T08:03:56.705Z,5.5
2018-01-25T08:05:00.693Z,5.5
2018-01-25T08:06:05.427Z,5.6
2018-01-25T08:07:08.689Z,5.6
2018-01-25T08:08:12.698Z,5.7
2018-01-25T08:09:16.862Z,5.7
2018-01-25T08:11:00.156Z,5.8
2018-01-25T08:12:04.844Z,5.9
2018-01-25T08:13:09.904Z,5.9
2018-01-25T08:14:13.917Z,6
2018-01-25T08:15:17.419Z,6
2018-01-25T08:16:20.933Z,6.1
2018-01-25T08:17:24.828Z,6.2
2018-01-25T08:18:29.076Z,6.2
2018-01-25T08:19:33.072Z,6.3
2018-01-25T08:20:36.332Z,6.3
2018-01-25T08:21:43.176Z,6.3
2018-01-25T08:22:46.578Z,6.2
2018-01-25T08:23:50.443Z,6.3
2018-01-25T08:24:54.031Z,6.2
2018-01-25T08:25:59.237Z,6.2
2018-01-25T08:27:03.793Z,6.1
2018-01-25T08:28:09.004Z,6.1
2018-01-25T08:29:13.542Z,6.1
2018-01-25T08:30:17.457Z,6
2018-01-25T08:31:21.611Z,6
2018-01-25T08:32:28.628Z,6.1
2018-01-25T08:33:32.881Z,6
2018-01-25T08:34:37.636Z,6.2
2018-01-25T08:35:42.723Z,6.3
2018-01-25T08:36:47.636Z,6.2
2018-01-25T08:37:52.635Z,6.3
2018-01-25T08:38:56.803Z,6.3
2018-01-25T08:40:01.118Z,6.3
2018-01-25T08:41:06.682Z,6.3
2018-01-25T08:42:11.158Z,6.3
2018-01-25T08:43:21.423Z,6.3
2018-01-25T08:44:25.331Z,6.3
2018-01-25T08:45:30.330Z,6.4
2018-01-25T08:46:36.678Z,6.5
2018-01-25T08:47:42.364Z,6.4
2018-01-25T08:48:48.507Z,6.4
2018-01-25T08:49:55.432Z,6.5
2018-01-25T08:50:59.229Z,6.5
2018-01-25T08:52:02.699Z,6.5
2018-01-25T08:53:06.848Z,6.5
2018-01-25T08:54:14.457Z,6.6
2018-01-25T08:55:18.265Z,6.6
2018-01-25T08:56:21.771Z,6.7
2018-01-25T08:57:25.170Z,6.7
2018-01-25T08:58:29.294Z,6.8
2018-01-25T08:59:32.753Z,6.7
2018-01-25T09:00:36.154Z,6.8
2018-01-25T09:01:39.614Z,6.8
2018-01-25T09:02:43.801Z,7
2018-01-25T09:03:47.201Z,7
2018-01-25T09:04:54.886Z,7
2018-01-25T09:05:58.943Z,7.1
2018-01-25T09:07:02.386Z,7.2
2018-01-25T09:08:05.874Z,7.2
2018-01-25T09:09:09.943Z,7.2
2018-01-25T09:10:13.480Z,7.2
2018-01-25T09:11:17.038Z,7.4
2018-01-25T09:12:20.485Z,7.4
2018-01-25T09:13:25.010Z,7.5
2018-01-25T09:14:28.375Z,7.5
2018-01-25T09:15:35.285Z,7.7
2018-01-25T09:16:39.314Z,7.7
2018-01-25T09:17:43.395Z,7.8
2018-01-25T09:18:47.407Z,7.8
2018-01-25T09:19:50.756Z,7.8
2018-01-25T09:20:54.156Z,7.9
2018-01-25T09:21:58.431Z,7.9
2018-01-25T09:23:01.722Z,7.9
2018-01-25T09:24:05.030Z,7.9
2018-01-25T09:25:08.507Z,7.8
2018-01-25T09:26:16.031Z,8
2018-01-25T09:27:19.533Z,7.9
2018-01-25T09:28:22.948Z,8
2018-01-25T09:29:26.325Z,8.1
2018-01-25T09:30:29.704Z,8.2
2018-01-25T09:31:33.264Z,8.3
2018-01-25T09:32:36.501Z,8.3
2018-01-25T09:33:40.344Z,8.4
2018-01-25T09:34:43.785Z,8.3
2018-01-25T09:35:47.312Z,8.4
2018-01-25T09:36:54.179Z,8.5
2018-01-25T09:37:57.664Z,8.5
2018-01-25T09:39:01.247Z,8.6
2018-01-25T09:40:04.569Z,8.6
2018-01-25T09:41:07.898Z,8.6
2018-01-25T09:42:11.363Z,8.7
2018-01-25T09:43:14.783Z,8.7
2018-01-25T09:44:18.130Z,8.7
2018-01-25T09:45:21.473Z,8.7
2018-01-25T09:46:25.794Z,8.7
2018-01-25T09:47:33.004Z,8.7
2018-01-25T09:48:37.104Z,8.7
2018-01-25T09:49:40.576Z,8.6
2018-01-25T09:50:44.025Z,8.7
2018-01-25T09:51:47.253Z,8.7
2018-01-25T09:52:50.723Z,8.7
2018-01-25T09:53:54.054Z,8.7
2018-01-25T09:54:57.342Z,8.7
2018-01-25T09:56:00.787Z,8.8
2018-01-25T09:57:04.276Z,8.8
2018-01-25T09:58:11.275Z,8.8
2018-01-25T09:59:15.487Z,8.9
2018-01-25T10:00:18.861Z,8.9
2018-01-25T10:01:22.351Z,9
2018-01-25T10:02:25.798Z,9
2018-01-25T10:03:29.057Z,9
2018-01-25T10:04:32.522Z,9.1
2018-01-25T10:05:36.627Z,9.1
2018-01-25T10:06:40.812Z,9.1
2018-01-25T10:07:44.940Z,9.1
2018-01-25T10:08:52.774Z,9.2
2018-01-25T10:09:56.121Z,9.2
2018-01-25T10:10:59.554Z,9.3
2018-01-25T10:12:03.516Z,9.4
2018-01-25T10:13:10.762Z,9.4
2018-01-25T10:14:14.278Z,9.5
2018-01-25T10:15:17.795Z,9.4
2018-01-25T10:16:22.466Z,9.5
2018-01-25T10:17:25.728Z,9.7
2018-01-25T10:18:29.774Z,9.6
2018-01-25T10:19:36.822Z,9.7
2018-01-25T10:20:40.219Z,9.7
2018-01-25T10:21:44.802Z,9.7
2018-01-25T10:22:49.729Z,9.7
2018-01-25T10:23:54.112Z,9.8
2018-01-25T10:24:57.578Z,9.8
2018-01-25T10:26:00.881Z,9.8
2018-01-25T10:27:04.273Z,9.8
2018-01-25T10:28:07.857Z,9.9
2018-01-25T10:29:11.244Z,9.9
2018-01-25T10:30:18.134Z,9.9
2018-01-25T10:31:21.738Z,9.9
2018-01-25T10:32:25.689Z,9.9
2018-01-25T10:33:29.753Z,9.9
2018-01-25T10:34:33.211Z,9.9
2018-01-25T10:35:36.515Z,10
2018-01-25T10:36:41.034Z,9.9
2018-01-25T10:37:44.543Z,9.9
2018-01-25T10:38:48.612Z,9.9
2018-01-25T10:39:52.087Z,9.9
2018-01-25T10:40:59.765Z,9.9
2018-01-25T10:42:03.952Z,9.8
2018-01-25T10:43:07.331Z,9.8
2018-01-25T10:44:10.796Z,9.9
2018-01-25T10:45:14.180Z,9.9
2018-01-25T10:46:17.594Z,9.8
2018-01-25T10:47:20.879Z,9.9
2018-01-25T10:48:24.333Z,9.9
2018-01-25T10:49:27.781Z,9.9
2018-01-25T10:50:31.279Z,9.9
2018-01-25T10:51:38.174Z,9.8
2018-01-25T10:52:41.640Z,9.8
2018-01-25T10:53:45.242Z,9.8
2018-01-25T10:54:49.373Z,9.7
2018-01-25T10:55:52.842Z,9.6
2018-01-25T10:56:56.377Z,9.7
2018-01-25T10:57:59.680Z,9.7
2018-01-25T10:59:03.148Z,9.6
2018-01-25T11:00:06.636Z,9.6
2018-01-25T11:01:09.963Z,9.5
2018-01-25T11:02:16.968Z,9.5
2018-01-25T11:03:20.436Z,9.4
2018-01-25T11:04:23.672Z,9.5
2018-01-25T11:05:27.133Z,9.5
2018-01-25T11:06:30.531Z,9.5
2018-01-25T11:07:33.857Z,9.5
2018-01-25T11:08:37.220Z,9.6
2018-01-25T11:09:40.610Z,9.6
2018-01-25T11:10:43.998Z,9.7
2018-01-25T11:11:48.223Z,9.8
2018-01-25T11:12:55.077Z,9.8
2018-01-25T11:13:59.069Z,9.9
2018-01-25T11:15:02.451Z,9.9
2018-01-25T11:16:05.855Z,9.9
2018-01-25T11:17:09.310Z,9.9
2018-01-25T11:18:12.869Z,9.9
2018-01-25T11:19:16.272Z,9.9
2018-01-25T11:20:20.035Z,9.9
2018-01-25T11:21:23.489Z,9.9
2018-01-25T11:22:27.811Z,9.8
2018-01-25T11:23:34.616Z,9.8
2018-01-25T11:24:38.048Z,9.7
2018-01-25T11:25:41.706Z,9.8
2018-01-25T11:26:45.080Z,9.8
2018-01-25T11:27:49.020Z,9.8
2018-01-25T11:28:52.446Z,9.8
2018-01-25T11:29:55.751Z,9.8
2018-01-25T11:30:59.064Z,9.7
2018-01-25T11:32:02.311Z,9.7
2018-01-25T11:33:05.870Z,9.7
2018-01-25T11:34:13.462Z,9.6
2018-01-25T11:35:16.946Z,9.6
2018-01-25T11:36:20.479Z,9.6
2018-01-25T11:37:23.965Z,9.7
2018-01-25T11:38:28.612Z,9.7
2018-01-25T11:39:32.535Z,9.7
2018-01-25T11:40:36.922Z,9.7
2018-01-25T11:41:43.107Z,9.7
2018-01-25T11:42:46.520Z,9.7
2018-01-25T11:43:49.808Z,9.8
2018-01-25T11:44:56.652Z,9.9
2018-01-25T11:45:59.984Z,9.9
2018-01-25T11:47:04.965Z,9.9
2018-01-25T11:48:08.470Z,9.9
2018-01-25T11:49:11.889Z,9.8
2018-01-25T11:50:15.506Z,9.8
2018-01-25T11:51:18.968Z,9.7
2018-01-25T11:52:22.395Z,9.7
2018-01-25T11:53:26.916Z,9.8
2018-01-25T11:54:30.038Z,9.7
2018-01-25T11:55:37.704Z,9.7
2018-01-25T11:56:41.292Z,9.7
2018-01-25T11:57:45.071Z,9.8
2018-01-25T11:58:49.127Z,9.8
2018-01-25T11:59:52.496Z,9.7
2018-01-25T12:00:56.626Z,9.8
2018-01-25T12:02:00.007Z,9.9
2018-01-25T12:03:03.485Z,9.9
2018-01-25T12:04:06.924Z,9.9
2018-01-25T12:05:10.386Z,9.9
2018-01-25T12:06:18.353Z,9.9
2018-01-25T12:07:22.806Z,10
2018-01-25T12:08:26.857Z,10
2018-01-25T12:09:30.986Z,10
2018-01-25T12:10:34.374Z,10
2018-01-25T12:11:37.796Z,10
2018-01-25T12:12:41.220Z,10
2018-01-25T12:13:44.649Z,10
2018-01-25T12:14:48.072Z,10.1
2018-01-25T12:15:52.122Z,10.1
2018-01-25T12:16:59.205Z,10.1
2018-01-25T12:18:02.835Z,10.1
2018-01-25T12:19:06.389Z,10.1
2018-01-25T12:20:09.944Z,10.1
2018-01-25T12:21:13.516Z,10.1
2018-01-25T12:22:17.174Z,10.2
2018-01-25T12:23:20.542Z,10.2
2018-01-25T12:24:24.121Z,10.3
2018-01-25T12:25:27.526Z,10.4
2018-01-25T12:26:30.960Z,10.4
2018-01-25T12:27:38.467Z,10.5
2018-01-25T12:28:42.033Z,10.5
2018-01-25T12:29:45.417Z,10.6
2018-01-25T12:30:48.864Z,10.6
2018-01-25T12:31:52.338Z,10.7
2018-01-25T12:32:55.680Z,10.7
2018-01-25T12:33:58.894Z,10.6
2018-01-25T12:35:02.165Z,10.7
2018-01-25T12:36:05.530Z,10.7
2018-01-25T12:37:09.382Z,10.7
2018-01-25T12:38:16.324Z,10.7
2018-01-25T12:39:20.564Z,10.7
2018-01-25T12:40:24.044Z,10.7
2018-01-25T12:41:27.346Z,10.7
2018-01-25T12:42:31.446Z,10.7
2018-01-25T12:43:35.515Z,10.7
2018-01-25T12:44:38.709Z,10.7
2018-01-25T12:45:42.921Z,10.7
2018-01-25T12:46:46.287Z,10.8
2018-01-25T12:47:49.805Z,10.8
2018-01-25T12:48:57.632Z,10.8
2018-01-25T12:50:00.998Z,10.8
2018-01-25T12:51:04.354Z,10.8
2018-01-25T12:52:07.617Z,10.8
2018-01-25T12:53:11.049Z,10.8
2018-01-25T12:54:14.432Z,10.8
2018-01-25T12:55:18.636Z,10.9
2018-01-25T12:56:22.595Z,10.9
2018-01-25T12:57:25.990Z,10.9
2018-01-25T12:58:29.363Z,10.9
2018-01-25T12:59:36.461Z,10.8
2018-01-25T13:00:39.988Z,10.8
2018-01-25T13:01:44.210Z,10.8
2018-01-25T13:02:47.628Z,10.8
2018-01-25T13:03:52.465Z,10.8
2018-01-25T13:04:55.842Z,10.8
2018-01-25T13:05:59.132Z,10.8
2018-01-25T13:07:02.456Z,10.8
2018-01-25T13:08:05.802Z,10.8
2018-01-25T13:09:09.261Z,10.8
2018-01-25T13:10:16.132Z,10.9
2018-01-25T13:11:19.424Z,10.8
2018-01-25T13:12:23.491Z,10.9
2018-01-25T13:13:26.725Z,10.9
2018-01-25T13:14:30.313Z,10.9
2018-01-25T13:15:33.866Z,10.9
2018-01-25T13:16:37.415Z,10.9
2018-01-25T13:17:40.829Z,10.9
2018-01-25T13:18:45.133Z,10.9
2018-01-25T13:19:48.543Z,10.9
2018-01-25T13:20:55.360Z,10.9
2018-01-25T13:21:58.645Z,11
2018-01-25T13:23:02.217Z,11
2018-01-25T13:24:05.702Z,11
2018-01-25T13:25:09.836Z,11.1
2018-01-25T13:26:13.190Z,11
2018-01-25T13:27:16.567Z,11.1
2018-01-25T13:28:19.912Z,11.1
2018-01-25T13:29:23.327Z,11.1
2018-01-25T13:30:26.841Z,11.1
2018-01-25T13:31:34.398Z,11
2018-01-25T13:32:37.969Z,11
2018-01-25T13:33:41.448Z,11
2018-01-25T13:34:44.792Z,11
2018-01-25T13:35:48.235Z,11
2018-01-25T13:36:51.706Z,11
2018-01-25T13:37:55.167Z,11
2018-01-25T13:38:58.530Z,10.9
2018-01-25T13:40:01.992Z,10.9
2018-01-25T13:41:05.285Z,10.9
2018-01-25T13:42:12.359Z,11
2018-01-25T13:43:15.876Z,11
2018-01-25T13:44:19.422Z,11
2018-01-25T13:45:22.829Z,11
2018-01-25T13:46:26.274Z,11
2018-01-25T13:47:29.592Z,11
2018-01-25T13:48:32.952Z,10.9
2018-01-25T13:49:36.432Z,10.9
2018-01-25T13:50:39.839Z,10.9
2018-01-25T13:51:43.048Z,10.9
2018-01-25T13:52:50.035Z,10.9
2018-01-25T13:53:53.383Z,10.9
2018-01-25T13:54:56.791Z,10.9
2018-01-25T13:56:00.400Z,10.9
2018-01-25T13:57:03.910Z,10.8
2018-01-25T13:58:07.302Z,10.8
2018-01-25T13:59:10.687Z,10.8
2018-01-25T14:00:14.658Z,10.8
2018-01-25T14:01:18.258Z,10.8
2018-01-25T14:02:21.816Z,10.8
2018-01-25T14:03:28.700Z,10.7
2018-01-25T14:04:32.081Z,10.7
2018-01-25T14:05:35.333Z,10.7
2018-01-25T14:06:38.794Z,10.7
2018-01-25T14:07:42.233Z,10.7
2018-01-25T14:08:55.650Z,10.6
2018-01-25T14:09:59.674Z,10.6
2018-01-25T14:11:03.134Z,10.6
2018-01-25T14:12:06.580Z,10.6
2018-01-25T14:13:10.031Z,10.6
2018-01-25T14:14:17.719Z,10.5
2018-01-25T14:15:21.159Z,10.5
2018-01-25T14:16:25.215Z,10.5
2018-01-25T14:17:28.632Z,10.5
2018-01-25T14:18:33.100Z,10.5
2018-01-25T14:19:36.627Z,10.5
2018-01-25T14:20:40.022Z,10.4
2018-01-25T14:21:44.509Z,10.4
2018-01-25T14:22:47.846Z,10.4
2018-01-25T14:23:51.116Z,10.5
2018-01-25T14:24:58.055Z,10.4
2018-01-25T14:26:01.411Z,10.4
2018-01-25T14:27:04.853Z,10.3
2018-01-25T14:28:08.225Z,10.4
2018-01-25T14:29:11.809Z,10.3
2018-01-25T14:30:15.192Z,10.3
2018-01-25T14:31:18.476Z,10.3
2018-01-25T14:32:22.687Z,10.3
2018-01-25T14:33:27.631Z,10.3
2018-01-25T14:34:31.055Z,10.3
2018-01-25T14:35:37.891Z,10.3
2018-01-25T14:36:41.441Z,10.3
2018-01-25T14:37:44.970Z,10.3
2018-01-25T14:38:48.478Z,10.3
2018-01-25T14:39:51.977Z,10.3
2018-01-25T14:40:56.078Z,10.3
2018-01-25T14:41:59.976Z,10.2
2018-01-25T14:43:03.612Z,10.3
2018-01-25T14:44:07.166Z,10.2
2018-01-25T14:45:10.563Z,10.2
2018-01-25T14:46:18.156Z,10.2
2018-01-25T14:47:22.251Z,10.1
2018-01-25T14:48:25.890Z,10.1
2018-01-25T14:49:29.175Z,10.1
2018-01-25T14:50:32.659Z,10.1
2018-01-25T14:51:36.110Z,10.1
2018-01-25T14:52:39.684Z,10
2018-01-25T14:53:43.169Z,10
2018-01-25T14:54:47.571Z,10
2018-01-25T14:55:51.110Z,10
2018-01-25T14:56:58.240Z,10
2018-01-25T14:58:03.864Z,10
2018-01-25T14:59:07.221Z,10
2018-01-25T15:00:10.662Z,9.9
2018-01-25T15:01:16.318Z,9.9
2018-01-25T15:02:20.952Z,9.9
2018-01-25T15:03:24.324Z,9.9
2018-01-25T15:04:27.710Z,9.9
2018-01-25T15:05:31.111Z,9.9
2018-01-25T15:06:34.465Z,9.8
2018-01-25T15:07:42.230Z,9.8
2018-01-25T15:08:45.832Z,9.8
2018-01-25T15:09:49.253Z,9.8
2018-01-25T15:10:52.463Z,9.8